createdAt,value
2023-03-05T00:05:06.646Z,-3.12
2023-03-05T00:11:49.158Z,-3.15
2023-03-05T00:18:31.893Z,-3.19
2023-03-05T00:25:14.277Z,-3.24
2023-03-05T00:31:56.847Z,-3.32
2023-03-05T00:38:39.226Z,-3.39
2023-03-05T00:45:21.710Z,-3.44
2023-03-05T00:52:04.371Z,-3.51
2023-03-05T00:58:46.863Z,-3.51
2023-03-05T01:05:29.747Z,-3.53
2023-03-05T01:12:12.211Z,-3.56
2023-03-05T01:18:54.883Z,-3.54
2023-03-05T01:25:37.908Z,-3.52
2023-03-05T01:32:20.391Z,-3.50
2023-03-05T01:39:02.871Z,-3.49
2023-03-05T01:46:24.944Z,-3.45
2023-03-05T01:53:07.940Z,-3.36
2023-03-05T01:59:59.405Z,-3.32
2023-03-05T02:06:42.809Z,-3.28
2023-03-05T02:13:33.390Z,-3.30
2023-03-05T02:20:23.987Z,-3.33
2023-03-05T02:27:07.503Z,-3.39
2023-03-05T02:33:51.235Z,-3.45
2023-03-05T02:40:35.092Z,-3.46
2023-03-05T02:47:20.488Z,-3.43
2023-03-05T02:54:03.161Z,-3.41
2023-03-05T03:00:46.841Z,-3.40
2023-03-05T03:07:31.883Z,-3.39
2023-03-05T03:14:14.473Z,-3.33
2023-03-05T03:20:56.912Z,-3.35
2023-03-05T03:27:39.387Z,-3.36
2023-03-05T03:34:21.976Z,-3.40
2023-03-05T03:41:08.050Z,-3.40
2023-03-05T03:47:51.909Z,-3.43
2023-03-05T03:54:34.778Z,-3.44
2023-03-05T04:01:17.159Z,-3.49
2023-03-05T04:08:00.021Z,-3.51
2023-03-05T04:14:42.524Z,-3.52
2023-03-05T04:21:25.072Z,-3.54
2023-03-05T04:28:10.456Z,-3.48
2023-03-05T04:34:52.837Z,-3.46
2023-03-05T04:41:35.104Z,-3.43
2023-03-05T04:48:18.935Z,-3.44
2023-03-05T04:55:01.307Z,-3.46
2023-03-05T05:01:43.738Z,-3.52
2023-03-05T05:08:29.415Z,-3.58
2023-03-05T05:15:13.152Z,-3.59
2023-03-05T05:21:55.479Z,-3.62
2023-03-05T05:28:38.565Z,-3.62
2023-03-05T05:35:20.945Z,-3.63
2023-03-05T05:42:03.599Z,-3.61
2023-03-05T05:48:46.753Z,-3.58
2023-03-05T05:55:29.077Z,-3.51
2023-03-05T06:02:12.340Z,-3.36
2023-03-05T06:08:57.221Z,-3.23
2023-03-05T06:15:39.753Z,-3.10
2023-03-05T06:22:22.055Z,-2.97
2023-03-05T06:29:04.744Z,-2.80
2023-03-05T06:35:47.146Z,-2.66
2023-03-05T06:42:29.404Z,-2.52
2023-03-05T06:49:11.783Z,-2.35
2023-03-05T06:55:56.676Z,-2.13
2023-03-05T07:02:39.387Z,-1.98
2023-03-05T07:09:21.754Z,-1.77
2023-03-05T07:16:09.395Z,-1.56
2023-03-05T07:22:51.749Z,-1.37
2023-03-05T07:29:34.058Z,-1.18
2023-03-05T07:36:16.990Z,-0.97
2023-03-05T07:42:59.309Z,-0.78
2023-03-05T07:49:46.378Z,-0.58
2023-03-05T07:56:35.589Z,-0.39
2023-03-05T08:03:18.492Z,-0.19
2023-03-05T08:10:00.811Z,-0.04
2023-03-05T08:16:43.489Z,0.12
2023-03-05T08:23:26.268Z,0.25
2023-03-05T08:30:16.049Z,0.41
2023-03-05T08:36:58.438Z,0.57
2023-03-05T08:43:40.823Z,0.75
2023-03-05T08:50:23.744Z,0.92
2023-03-05T08:57:06.051Z,1.01
2023-03-05T09:03:49.214Z,1.20
2023-03-05T09:10:31.500Z,1.39
2023-03-05T09:17:14.049Z,1.53
2023-03-05T09:23:59.704Z,1.75
2023-03-05T09:30:42.608Z,2.03
2023-03-05T09:37:25.391Z,2.18
2023-03-05T09:44:31.943Z,2.10
2023-03-05T09:51:26.821Z,2.15
2023-03-05T09:58:19.140Z,2.18
2023-03-05T10:05:22.868Z,2.22
2023-03-05T10:12:32.720Z,2.39
2023-03-05T10:20:04.257Z,2.23
2023-03-05T10:27:04.502Z,2.40
2023-03-05T10:34:21.308Z,2.32
2023-03-05T10:42:02.429Z,2.22
2023-03-05T10:48:55.716Z,2.56
2023-03-05T10:55:38.037Z,2.56
2023-03-05T11:02:22.806Z,2.42
2023-03-05T11:09:32.272Z,2.55
2023-03-05T11:16:46.955Z,2.98
2023-03-05T11:23:29.377Z,3.47
2023-03-05T11:30:36.389Z,3.32
2023-03-05T11:37:28.616Z,3.22
2023-03-05T11:44:27.094Z,2.96
2023-03-05T11:51:28.689Z,2.64
2023-03-05T11:58:39.288Z,2.36
2023-03-05T12:05:22.222Z,2.27
2023-03-05T12:12:32.404Z,2.73
2023-03-05T12:19:35.781Z,2.76
2023-03-05T12:26:39.855Z,3.08
2023-03-05T12:33:35.031Z,3.46
2023-03-05T12:40:27.969Z,3.83
2023-03-05T12:47:12.905Z,4.30
2023-03-05T12:53:56.256Z,4.53
2023-03-05T13:00:45.437Z,4.60
2023-03-05T13:07:27.993Z,4.65
2023-03-05T13:14:47.492Z,4.41
2023-03-05T13:21:33.264Z,4.51
2023-03-05T13:28:17.876Z,4.25
2023-03-05T13:35:01.600Z,3.92
2023-03-05T13:41:57.801Z,3.53
2023-03-05T13:48:40.906Z,3.26
2023-03-05T13:55:23.326Z,3.09
2023-03-05T14:02:20.905Z,3.18
2023-03-05T14:09:38.255Z,3.38
2023-03-05T14:16:38.317Z,3.62
2023-03-05T14:23:48.807Z,3.88
2023-03-05T14:30:32.900Z,4.06
2023-03-05T14:37:33.030Z,4.06
2023-03-05T14:44:17.945Z,4.12
2023-03-05T14:51:01.364Z,4.24
2023-03-05T14:57:44.158Z,4.19
2023-03-05T15:04:26.710Z,4.13
2023-03-05T15:11:11.339Z,4.06
2023-03-05T15:17:56.136Z,4.06
2023-03-05T15:24:38.913Z,3.95
2023-03-05T15:31:21.315Z,3.90
2023-03-05T15:38:03.804Z,3.71
2023-03-05T15:44:46.266Z,3.49
2023-03-05T15:51:28.925Z,3.25
2023-03-05T15:58:16.439Z,2.86
2023-03-05T16:04:58.796Z,2.55
2023-03-05T16:11:48.095Z,2.26
2023-03-05T16:18:32.694Z,2.00
2023-03-05T16:25:16.460Z,1.75
2023-03-05T16:31:59.944Z,1.54
2023-03-05T16:38:42.845Z,1.31
2023-03-05T16:45:28.967Z,1.14
2023-03-05T16:52:18.796Z,0.98
2023-03-05T16:59:05.843Z,0.80
2023-03-05T17:05:48.686Z,0.62
2023-03-05T17:12:31.203Z,0.37
2023-03-05T17:19:13.933Z,0.19
2023-03-05T17:25:56.595Z,0.09
2023-03-05T17:32:39.813Z,-0.02
2023-03-05T17:39:22.543Z,-0.14
2023-03-05T17:46:05.549Z,-0.25
2023-03-05T17:52:48.072Z,-0.35
2023-03-05T17:59:30.418Z,-0.40
2023-03-05T18:06:12.774Z,-0.43
2023-03-05T18:12:55.622Z,-0.50
2023-03-05T18:19:37.965Z,-0.54
2023-03-05T18:26:20.581Z,-0.59
2023-03-05T18:33:03.663Z,-0.63
2023-03-05T18:39:46.039Z,-0.66
2023-03-05T18:46:28.460Z,-0.70
2023-03-05T18:53:14.919Z,-0.78
2023-03-05T18:59:57.382Z,-0.83
2023-03-05T19:06:40.911Z,-0.92
2023-03-05T19:13:45.872Z,-1.02
2023-03-05T19:20:28.429Z,-1.10
2023-03-05T19:27:13.234Z,-1.15
2023-03-05T19:33:55.967Z,-1.21
2023-03-05T19:40:41.662Z,-1.27
2023-03-05T19:47:25.961Z,-1.25
2023-03-05T19:54:09.608Z,-1.30
2023-03-05T20:00:52.113Z,-1.33
2023-03-05T20:07:34.633Z,-1.36
2023-03-05T20:14:17.034Z,-1.43
2023-03-05T20:21:02.050Z,-1.52
2023-03-05T20:27:45.058Z,-1.57
2023-03-05T20:34:27.493Z,-1.66
2023-03-05T20:41:14.012Z,-1.71
2023-03-05T20:47:58.635Z,-1.79
2023-03-05T20:54:41.840Z,-1.83
2023-03-05T21:01:25.491Z,-1.87
2023-03-05T21:08:07.883Z,-1.91
2023-03-05T21:14:50.431Z,-1.94
2023-03-05T21:21:32.856Z,-1.99
2023-03-05T21:28:17.528Z,-2.05
2023-03-05T21:35:00.537Z,-2.08
2023-03-05T21:41:46.562Z,-2.11
2023-03-05T21:48:29.471Z,-2.12
2023-03-05T21:55:17.375Z,-2.16
2023-03-05T22:02:00.627Z,-2.19
2023-03-05T22:08:43.210Z,-2.23
2023-03-05T22:15:25.662Z,-2.24
2023-03-05T22:22:07.971Z,-2.29
2023-03-05T22:28:51.261Z,-2.31
2023-03-05T22:35:33.644Z,-2.37
2023-03-05T22:42:16.027Z,-2.44
2023-03-05T22:48:58.500Z,-2.52
2023-03-05T22:55:43.902Z,-2.58
2023-03-05T23:02:26.228Z,-2.61
2023-03-05T23:09:08.585Z,-2.65
2023-03-05T23:15:51.265Z,-2.71
2023-03-05T23:22:35.214Z,-2.76
2023-03-05T23:29:18.012Z,-2.80
2023-03-05T23:36:01.074Z,-2.84
2023-03-05T23:42:44.105Z,-2.85
2023-03-05T23:49:27.062Z,-2.91
2023-03-05T23:56:12.652Z,-2.94
